Skip Navigation Links Skip Navigation Links

Current Weather

Arnold Palmer Regional, Latrobe, Penn.

For information only: do not use for flight planning or navigation.
Latest weather
Observation time Tuesday, January 26, 2021 6:50 PM EST
Local time Tuesday, January 26, 2021 7:38 PM EST
Flight conditions Marginal Visual Meteorological Conditions
Winds
Wind direction West-Southwest (240°)
Wind speed 21 mph
Wind gusting to 32 mph
Visibility 7 mi.
Sky condition
Ceiling 2,600 ft. broken clouds
Cloud layer broken clouds 2,600 ft.
Cloud layer overcast 3,200 ft.
Temperature 43°F
Dewpoint 36°F
Altimeter 29.82 in.Hg
Derived measurements
Relative humidity 75%
Wind chill 34°F
Density altitude 322 ft.
METAR KLBE 262350Z 24018G28KT 7SM BKN026 OVC032 06/02 A2982

Settings

Location code

InnerDrive.Weather 4.0.6770.0 Release CLR 4.0.30319.42000
Copyright ©2018 Inner Drive Technology. All rights reserved. Portions Copyright ©1986-2018 David Braverman.

Find weather

Site navigation


Skip Navigation Links

Place info

Page info

PayPal - The safer, easier way to pay online!

Return home.

Copyright ©2021 Inner Drive Technology. Purveyors of fine, hand-crafted computer software. Page printed 2021-01-27T00:38:16 UTC.